sensor_id;sensor_type;location;lat;lon;timestamp;temperature;humidity
24035;DHT22;12242;50.952;4.678;2022-12-29T00:01:16;12.20;99.90
24035;DHT22;12242;50.952;4.678;2022-12-29T00:03:46;12.20;99.90
24035;DHT22;12242;50.952;4.678;2022-12-29T00:06:20;12.30;99.90
24035;DHT22;12242;50.952;4.678;2022-12-29T00:08:50;12.30;99.90
24035;DHT22;12242;50.952;4.678;2022-12-29T00:11:22;12.30;99.90
24035;DHT22;12242;50.952;4.678;2022-12-29T00:13:54;12.20;99.90
24035;DHT22;12242;50.952;4.678;2022-12-29T00:16:44;12.30;99.90
24035;DHT22;12242;50.952;4.678;2022-12-29T00:19:12;12.20;99.90
24035;DHT22;12242;50.952;4.678;2022-12-29T00:21:58;12.30;99.90
24035;DHT22;12242;50.952;4.678;2022-12-29T00:24:45;12.30;99.90
24035;DHT22;12242;50.952;4.678;2022-12-29T00:27:32;12.30;99.90
24035;DHT22;12242;50.952;4.678;2022-12-29T00:30:22;12.20;99.90
24035;DHT22;12242;50.952;4.678;2022-12-29T00:33:13;12.20;99.90
24035;DHT22;12242;50.952;4.678;2022-12-29T00:36:32;12.20;99.90
24035;DHT22;12242;50.952;4.678;2022-12-29T00:39:07;12.20;99.90
24035;DHT22;12242;50.952;4.678;2022-12-29T00:41:53;12.30;99.90
24035;DHT22;12242;50.952;4.678;2022-12-29T00:44:39;12.30;99.90
24035;DHT22;12242;50.952;4.678;2022-12-29T00:47:07;12.30;99.90
24035;DHT22;12242;50.952;4.678;2022-12-29T00:49:36;12.30;99.90
24035;DHT22;12242;50.952;4.678;2022-12-29T00:52:09;12.30;99.90
24035;DHT22;12242;50.952;4.678;2022-12-29T00:54:38;12.40;99.90
24035;DHT22;12242;50.952;4.678;2022-12-29T00:57:07;12.40;99.90
24035;DHT22;12242;50.952;4.678;2022-12-29T00:59:36;12.50;99.90
24035;DHT22;12242;50.952;4.678;2022-12-29T01:02:03;12.50;99.90
24035;DHT22;12242;50.952;4.678;2022-12-29T01:04:31;12.50;99.90
24035;DHT22;12242;50.952;4.678;2022-12-29T01:07:04;12.50;99.90
24035;DHT22;12242;50.952;4.678;2022-12-29T01:09:32;12.50;99.90
24035;DHT22;12242;50.952;4.678;2022-12-29T01:12:18;12.50;99.90
24035;DHT22;12242;50.952;4.678;2022-12-29T01:15:07;12.50;99.90
24035;DHT22;12242;50.952;4.678;2022-12-29T01:17:34;12.50;99.90
24035;DHT22;12242;50.952;4.678;2022-12-29T01:20:02;12.50;99.90
24035;DHT22;12242;50.952;4.678;2022-12-29T01:22:32;12.40;99.90
24035;DHT22;12242;50.952;4.678;2022-12-29T01:25:00;12.50;99.90
24035;DHT22;12242;50.952;4.678;2022-12-29T01:27:27;12.50;99.90
24035;DHT22;12242;50.952;4.678;2022-12-29T01:29:54;12.40;99.90
24035;DHT22;12242;50.952;4.678;2022-12-29T01:32:26;12.30;99.90
24035;DHT22;12242;50.952;4.678;2022-12-29T01:34:58;12.20;99.90
24035;DHT22;12242;50.952;4.678;2022-12-29T01:37:25;12.10;99.90
24035;DHT22;12242;50.952;4.678;2022-12-29T01:39:55;12.10;99.90
24035;DHT22;12242;50.952;4.678;2022-12-29T01:42:25;12.10;99.90
24035;DHT22;12242;50.952;4.678;2022-12-29T01:45:02;12.00;99.90
24035;DHT22;12242;50.952;4.678;2022-12-29T01:47:37;11.90;99.90
24035;DHT22;12242;50.952;4.678;2022-12-29T01:52:55;11.80;99.90
24035;DHT22;12242;50.952;4.678;2022-12-29T01:55:28;11.80;99.90
24035;DHT22;12242;50.952;4.678;2022-12-29T01:57:59;11.80;99.90
24035;DHT22;12242;50.952;4.678;2022-12-29T02:00:27;11.80;99.90
24035;DHT22;12242;50.952;4.678;2022-12-29T02:02:54;11.80;99.90
24035;DHT22;12242;50.952;4.678;2022-12-29T02:08:13;11.80;99.90
24035;DHT22;12242;50.952;4.678;2022-12-29T02:10:40;11.80;99.90
24035;DHT22;12242;50.952;4.678;2022-12-29T02:13:08;11.80;99.90
24035;DHT22;12242;50.952;4.678;2022-12-29T02:18:59;11.60;99.90
24035;DHT22;12242;50.952;4.678;2022-12-29T02:21:59;11.50;99.90
24035;DHT22;12242;50.952;4.678;2022-12-29T02:27:40;11.40;99.90
24035;DHT22;12242;50.952;4.678;2022-12-29T02:38:03;11.00;99.90
24035;DHT22;12242;50.952;4.678;2022-12-29T02:40:46;10.90;99.90
24035;DHT22;12242;50.952;4.678;2022-12-29T02:43:53;10.80;99.90
24035;DHT22;12242;50.952;4.678;2022-12-29T02:52:03;10.70;99.90
24035;DHT22;12242;50.952;4.678;2022-12-29T02:54:32;10.60;99.90
24035;DHT22;12242;50.952;4.678;2022-12-29T02:57:15;10.60;99.90
24035;DHT22;12242;50.952;4.678;2022-12-29T02:59:45;10.40;99.90
24035;DHT22;12242;50.952;4.678;2022-12-29T03:03:14;10.40;99.90
24035;DHT22;12242;50.952;4.678;2022-12-29T03:05:37;10.30;99.90
24035;DHT22;12242;50.952;4.678;2022-12-29T03:08:38;10.20;99.90
24035;DHT22;12242;50.952;4.678;2022-12-29T03:11:13;10.20;99.90
24035;DHT22;12242;50.952;4.678;2022-12-29T03:14:06;10.20;99.90
24035;DHT22;12242;50.952;4.678;2022-12-29T03:16:59;10.20;99.90
24035;DHT22;12242;50.952;4.678;2022-12-29T03:19:37;10.20;99.90
24035;DHT22;12242;50.952;4.678;2022-12-29T03:22:11;10.30;99.90
24035;DHT22;12242;50.952;4.678;2022-12-29T03:25:04;10.20;99.90
24035;DHT22;12242;50.952;4.678;2022-12-29T03:27:45;10.20;99.90
24035;DHT22;12242;50.952;4.678;2022-12-29T03:30:15;10.10;99.90
24035;DHT22;12242;50.952;4.678;2022-12-29T03:32:51;10.00;99.90
24035;DHT22;12242;50.952;4.678;2022-12-29T03:35:25;9.90;99.90
24035;DHT22;12242;50.952;4.678;2022-12-29T03:40:46;9.90;99.90
24035;DHT22;12242;50.952;4.678;2022-12-29T03:43:14;9.90;99.90
24035;DHT22;12242;50.952;4.678;2022-12-29T03:45:44;9.90;99.90
24035;DHT22;12242;50.952;4.678;2022-12-29T03:48:11;9.90;99.90
24035;DHT22;12242;50.952;4.678;2022-12-29T03:50:39;10.00;99.90
24035;DHT22;12242;50.952;4.678;2022-12-29T03:53:06;10.00;99.90
24035;DHT22;12242;50.952;4.678;2022-12-29T03:55:34;10.00;99.90
24035;DHT22;12242;50.952;4.678;2022-12-29T03:58:01;10.00;99.90
24035;DHT22;12242;50.952;4.678;2022-12-29T04:00:28;10.00;99.90
24035;DHT22;12242;50.952;4.678;2022-12-29T04:02:56;10.00;99.90
24035;DHT22;12242;50.952;4.678;2022-12-29T04:05:26;10.00;99.90
24035;DHT22;12242;50.952;4.678;2022-12-29T04:07:53;10.00;99.90
24035;DHT22;12242;50.952;4.678;2022-12-29T04:10:21;10.10;99.90
24035;DHT22;12242;50.952;4.678;2022-12-29T04:12:48;10.10;99.90
24035;DHT22;12242;50.952;4.678;2022-12-29T04:15:15;10.20;99.90
24035;DHT22;12242;50.952;4.678;2022-12-29T04:17:45;10.10;99.90
24035;DHT22;12242;50.952;4.678;2022-12-29T04:20:12;10.10;99.90
24035;DHT22;12242;50.952;4.678;2022-12-29T04:23:02;10.10;99.90
24035;DHT22;12242;50.952;4.678;2022-12-29T04:25:35;10.10;99.90
24035;DHT22;12242;50.952;4.678;2022-12-29T04:28:02;10.10;99.90
24035;DHT22;12242;50.952;4.678;2022-12-29T04:30:29;10.10;99.90
24035;DHT22;12242;50.952;4.678;2022-12-29T04:33:02;10.10;99.90
24035;DHT22;12242;50.952;4.678;2022-12-29T04:35:33;10.10;99.90
24035;DHT22;12242;50.952;4.678;2022-12-29T04:38:03;10.10;99.90
24035;DHT22;12242;50.952;4.678;2022-12-29T04:40:33;10.10;99.90
24035;DHT22;12242;50.952;4.678;2022-12-29T04:43:01;10.00;99.90
24035;DHT22;12242;50.952;4.678;2022-12-29T04:45:28;10.00;99.90
24035;DHT22;12242;50.952;4.678;2022-12-29T04:47:55;10.00;99.90
24035;DHT22;12242;50.952;4.678;2022-12-29T04:50:23;10.10;99.90
24035;DHT22;12242;50.952;4.678;2022-12-29T04:52:50;10.10;99.90
24035;DHT22;12242;50.952;4.678;2022-12-29T04:55:17;10.10;99.90
24035;DHT22;12242;50.952;4.678;2022-12-29T04:57:45;10.20;99.90
24035;DHT22;12242;50.952;4.678;2022-12-29T05:00:13;10.30;99.90
24035;DHT22;12242;50.952;4.678;2022-12-29T05:02:41;10.40;99.90
24035;DHT22;12242;50.952;4.678;2022-12-29T05:05:08;10.40;99.90
24035;DHT22;12242;50.952;4.678;2022-12-29T05:07:36;10.40;99.90
24035;DHT22;12242;50.952;4.678;2022-12-29T05:10:07;10.40;99.90
24035;DHT22;12242;50.952;4.678;2022-12-29T05:12:37;10.50;99.90
24035;DHT22;12242;50.952;4.678;2022-12-29T05:15:09;10.50;99.90
24035;DHT22;12242;50.952;4.678;2022-12-29T05:17:36;10.60;99.90
24035;DHT22;12242;50.952;4.678;2022-12-29T05:20:05;10.60;99.90
24035;DHT22;12242;50.952;4.678;2022-12-29T05:22:36;10.60;99.90
24035;DHT22;12242;50.952;4.678;2022-12-29T05:25:03;10.60;99.90
24035;DHT22;12242;50.952;4.678;2022-12-29T05:27:31;10.60;99.90
24035;DHT22;12242;50.952;4.678;2022-12-29T05:29:58;10.60;99.90
24035;DHT22;12242;50.952;4.678;2022-12-29T05:32:25;10.60;99.90
24035;DHT22;12242;50.952;4.678;2022-12-29T05:34:52;10.70;99.90
24035;DHT22;12242;50.952;4.678;2022-12-29T05:37:20;10.70;99.90
24035;DHT22;12242;50.952;4.678;2022-12-29T05:39:49;10.70;99.90
24035;DHT22;12242;50.952;4.678;2022-12-29T05:42:21;10.70;99.90
24035;DHT22;12242;50.952;4.678;2022-12-29T05:44:48;10.80;99.90
24035;DHT22;12242;50.952;4.678;2022-12-29T05:47:19;10.80;99.90
24035;DHT22;12242;50.952;4.678;2022-12-29T05:49:48;10.80;99.90
24035;DHT22;12242;50.952;4.678;2022-12-29T05:52:18;10.80;99.90
24035;DHT22;12242;50.952;4.678;2022-12-29T05:54:45;10.80;99.90
24035;DHT22;12242;50.952;4.678;2022-12-29T05:57:13;10.80;99.90
24035;DHT22;12242;50.952;4.678;2022-12-29T05:59:45;10.80;99.90
24035;DHT22;12242;50.952;4.678;2022-12-29T06:02:12;10.80;99.90
24035;DHT22;12242;50.952;4.678;2022-12-29T06:04:40;10.80;99.90
24035;DHT22;12242;50.952;4.678;2022-12-29T06:07:07;10.80;99.90
24035;DHT22;12242;50.952;4.678;2022-12-29T06:09:36;10.90;99.90
24035;DHT22;12242;50.952;4.678;2022-12-29T06:12:06;10.80;99.90
24035;DHT22;12242;50.952;4.678;2022-12-29T06:14:36;10.80;99.90
24035;DHT22;12242;50.952;4.678;2022-12-29T06:17:06;10.80;99.90
24035;DHT22;12242;50.952;4.678;2022-12-29T06:19:36;10.70;99.90
24035;DHT22;12242;50.952;4.678;2022-12-29T06:22:05;10.70;99.90
24035;DHT22;12242;50.952;4.678;2022-12-29T06:24:36;10.70;99.90
24035;DHT22;12242;50.952;4.678;2022-12-29T06:27:03;10.70;99.90
24035;DHT22;12242;50.952;4.678;2022-12-29T06:29:31;10.70;99.90
24035;DHT22;12242;50.952;4.678;2022-12-29T06:31:58;10.70;99.90
24035;DHT22;12242;50.952;4.678;2022-12-29T06:34:28;10.80;99.90
24035;DHT22;12242;50.952;4.678;2022-12-29T06:36:56;10.70;99.90
24035;DHT22;12242;50.952;4.678;2022-12-29T06:39:25;10.70;99.90
24035;DHT22;12242;50.952;4.678;2022-12-29T06:41:55;10.60;99.90
24035;DHT22;12242;50.952;4.678;2022-12-29T06:44:22;10.60;99.90
24035;DHT22;12242;50.952;4.678;2022-12-29T06:46:50;10.60;99.90
24035;DHT22;12242;50.952;4.678;2022-12-29T06:49:18;10.60;99.90
24035;DHT22;12242;50.952;4.678;2022-12-29T06:51:48;10.70;99.90
24035;DHT22;12242;50.952;4.678;2022-12-29T06:54:17;10.70;99.90
24035;DHT22;12242;50.952;4.678;2022-12-29T06:56:44;10.80;99.90
24035;DHT22;12242;50.952;4.678;2022-12-29T06:59:14;10.90;99.90
24035;DHT22;12242;50.952;4.678;2022-12-29T07:01:44;11.00;99.90
24035;DHT22;12242;50.952;4.678;2022-12-29T07:04:11;11.10;99.90
24035;DHT22;12242;50.952;4.678;2022-12-29T07:06:41;11.00;99.90
24035;DHT22;12242;50.952;4.678;2022-12-29T07:09:09;11.00;99.90
24035;DHT22;12242;50.952;4.678;2022-12-29T07:11:36;11.00;99.90
24035;DHT22;12242;50.952;4.678;2022-12-29T07:14:09;11.00;99.90
24035;DHT22;12242;50.952;4.678;2022-12-29T07:16:37;11.10;99.90
24035;DHT22;12242;50.952;4.678;2022-12-29T07:19:05;11.10;99.90
24035;DHT22;12242;50.952;4.678;2022-12-29T07:21:33;11.10;99.90
24035;DHT22;12242;50.952;4.678;2022-12-29T07:24:00;11.00;99.90
24035;DHT22;12242;50.952;4.678;2022-12-29T07:26:27;11.00;99.90
24035;DHT22;12242;50.952;4.678;2022-12-29T07:29:03;11.00;99.90
24035;DHT22;12242;50.952;4.678;2022-12-29T07:31:31;11.00;99.90
24035;DHT22;12242;50.952;4.678;2022-12-29T07:33:59;11.00;99.90
24035;DHT22;12242;50.952;4.678;2022-12-29T07:36:28;11.00;99.90
24035;DHT22;12242;50.952;4.678;2022-12-29T07:39:03;11.10;99.90
24035;DHT22;12242;50.952;4.678;2022-12-29T07:41:30;11.20;99.90
24035;DHT22;12242;50.952;4.678;2022-12-29T07:43:57;11.20;99.90
24035;DHT22;12242;50.952;4.678;2022-12-29T07:46:27;11.20;99.90
24035;DHT22;12242;50.952;4.678;2022-12-29T07:49:16;11.20;99.90
24035;DHT22;12242;50.952;4.678;2022-12-29T07:51:48;11.30;99.90
24035;DHT22;12242;50.952;4.678;2022-12-29T07:54:16;11.20;99.90
24035;DHT22;12242;50.952;4.678;2022-12-29T07:56:45;11.20;99.90
24035;DHT22;12242;50.952;4.678;2022-12-29T07:59:13;11.20;99.90
24035;DHT22;12242;50.952;4.678;2022-12-29T08:01:43;11.20;99.90
24035;DHT22;12242;50.952;4.678;2022-12-29T08:04:10;11.20;99.90
24035;DHT22;12242;50.952;4.678;2022-12-29T08:06:38;11.20;99.90
24035;DHT22;12242;50.952;4.678;2022-12-29T08:09:08;11.10;99.90
24035;DHT22;12242;50.952;4.678;2022-12-29T08:11:46;11.20;99.90
24035;DHT22;12242;50.952;4.678;2022-12-29T08:14:14;11.30;99.90
24035;DHT22;12242;50.952;4.678;2022-12-29T08:16:43;11.20;99.90
24035;DHT22;12242;50.952;4.678;2022-12-29T08:19:13;11.30;99.90
24035;DHT22;12242;50.952;4.678;2022-12-29T08:21:41;11.40;99.90
24035;DHT22;12242;50.952;4.678;2022-12-29T08:24:08;11.40;99.90
24035;DHT22;12242;50.952;4.678;2022-12-29T08:26:36;11.40;99.90
24035;DHT22;12242;50.952;4.678;2022-12-29T08:29:03;11.40;99.90
24035;DHT22;12242;50.952;4.678;2022-12-29T08:31:33;11.40;99.90
24035;DHT22;12242;50.952;4.678;2022-12-29T08:34:00;11.30;99.90
24035;DHT22;12242;50.952;4.678;2022-12-29T08:36:30;11.40;99.90
24035;DHT22;12242;50.952;4.678;2022-12-29T08:39:00;11.40;99.90
24035;DHT22;12242;50.952;4.678;2022-12-29T08:41:29;11.30;99.90
24035;DHT22;12242;50.952;4.678;2022-12-29T08:43:59;11.30;99.90
24035;DHT22;12242;50.952;4.678;2022-12-29T08:46:26;11.20;99.90
24035;DHT22;12242;50.952;4.678;2022-12-29T08:48:56;11.30;99.90
24035;DHT22;12242;50.952;4.678;2022-12-29T08:51:26;11.30;99.90
24035;DHT22;12242;50.952;4.678;2022-12-29T08:53:54;11.30;99.90
24035;DHT22;12242;50.952;4.678;2022-12-29T08:56:21;11.30;99.90
24035;DHT22;12242;50.952;4.678;2022-12-29T08:58:51;11.30;99.90
24035;DHT22;12242;50.952;4.678;2022-12-29T09:01:19;11.40;99.90
24035;DHT22;12242;50.952;4.678;2022-12-29T09:03:49;11.40;99.90
24035;DHT22;12242;50.952;4.678;2022-12-29T09:06:36;11.50;99.90
24035;DHT22;12242;50.952;4.678;2022-12-29T09:09:07;11.50;99.90
24035;DHT22;12242;50.952;4.678;2022-12-29T09:11:34;11.50;99.90
24035;DHT22;12242;50.952;4.678;2022-12-29T09:14:01;11.40;99.90
24035;DHT22;12242;50.952;4.678;2022-12-29T09:16:31;11.50;99.90
24035;DHT22;12242;50.952;4.678;2022-12-29T09:19:00;11.60;99.90
24035;DHT22;12242;50.952;4.678;2022-12-29T09:21:27;11.60;99.90
24035;DHT22;12242;50.952;4.678;2022-12-29T09:23:57;11.60;99.90
24035;DHT22;12242;50.952;4.678;2022-12-29T09:26:30;11.90;99.90
24035;DHT22;12242;50.952;4.678;2022-12-29T09:29:00;12.20;99.90
24035;DHT22;12242;50.952;4.678;2022-12-29T09:31:32;12.00;99.90
24035;DHT22;12242;50.952;4.678;2022-12-29T09:34:01;11.80;99.90
24035;DHT22;12242;50.952;4.678;2022-12-29T09:36:29;11.80;99.90
24035;DHT22;12242;50.952;4.678;2022-12-29T09:38:58;11.80;99.90
24035;DHT22;12242;50.952;4.678;2022-12-29T09:44:46;11.80;99.90
24035;DHT22;12242;50.952;4.678;2022-12-29T09:47:16;11.60;99.90
24035;DHT22;12242;50.952;4.678;2022-12-29T09:52:42;11.30;99.90
24035;DHT22;12242;50.952;4.678;2022-12-29T09:55:16;11.30;99.90
24035;DHT22;12242;50.952;4.678;2022-12-29T09:57:59;11.30;99.90
24035;DHT22;12242;50.952;4.678;2022-12-29T10:00:59;11.40;99.90
24035;DHT22;12242;50.952;4.678;2022-12-29T10:03:40;11.30;99.90
24035;DHT22;12242;50.952;4.678;2022-12-29T10:06:19;11.20;99.90
24035;DHT22;12242;50.952;4.678;2022-12-29T10:09:13;11.20;99.90
24035;DHT22;12242;50.952;4.678;2022-12-29T10:12:30;11.30;99.90
24035;DHT22;12242;50.952;4.678;2022-12-29T10:17:58;13.00;99.90
24035;DHT22;12242;50.952;4.678;2022-12-29T10:21:00;14.40;99.90
24035;DHT22;12242;50.952;4.678;2022-12-29T10:26:01;14.80;99.90
24035;DHT22;12242;50.952;4.678;2022-12-29T10:28:40;14.00;99.90
24035;DHT22;12242;50.952;4.678;2022-12-29T10:31:15;13.50;99.90
24035;DHT22;12242;50.952;4.678;2022-12-29T10:33:48;13.20;99.90
24035;DHT22;12242;50.952;4.678;2022-12-29T10:36:19;13.00;99.90
24035;DHT22;12242;50.952;4.678;2022-12-29T10:39:38;12.90;99.90
24035;DHT22;12242;50.952;4.678;2022-12-29T10:41:44;13.00;99.90
24035;DHT22;12242;50.952;4.678;2022-12-29T10:44:16;12.80;99.90
24035;DHT22;12242;50.952;4.678;2022-12-29T10:46:51;12.70;99.90
24035;DHT22;12242;50.952;4.678;2022-12-29T10:49:21;12.80;99.90
24035;DHT22;12242;50.952;4.678;2022-12-29T10:51:50;12.70;99.90
24035;DHT22;12242;50.952;4.678;2022-12-29T10:54:45;13.20;99.90
24035;DHT22;12242;50.952;4.678;2022-12-29T10:59:53;14.10;99.90
24035;DHT22;12242;50.952;4.678;2022-12-29T11:07:59;13.60;99.90
24035;DHT22;12242;50.952;4.678;2022-12-29T11:10:40;13.30;99.90
24035;DHT22;12242;50.952;4.678;2022-12-29T11:13:17;13.20;99.90
24035;DHT22;12242;50.952;4.678;2022-12-29T11:15:49;13.10;99.90
24035;DHT22;12242;50.952;4.678;2022-12-29T11:18:33;13.00;99.90
24035;DHT22;12242;50.952;4.678;2022-12-29T11:21:23;12.80;99.90
24035;DHT22;12242;50.952;4.678;2022-12-29T11:23:58;12.80;99.90
24035;DHT22;12242;50.952;4.678;2022-12-29T11:26:27;12.70;99.90
24035;DHT22;12242;50.952;4.678;2022-12-29T11:34:37;12.90;99.90
24035;DHT22;12242;50.952;4.678;2022-12-29T11:37:37;13.20;99.90
24035;DHT22;12242;50.952;4.678;2022-12-29T11:40:18;13.20;99.90
24035;DHT22;12242;50.952;4.678;2022-12-29T11:42:58;13.30;99.90
24035;DHT22;12242;50.952;4.678;2022-12-29T11:45:31;13.40;99.90
24035;DHT22;12242;50.952;4.678;2022-12-29T11:48:08;13.40;99.90
24035;DHT22;12242;50.952;4.678;2022-12-29T11:50:42;13.20;99.90
24035;DHT22;12242;50.952;4.678;2022-12-29T11:53:22;13.00;99.90
24035;DHT22;12242;50.952;4.678;2022-12-29T11:55:59;12.80;99.90
24035;DHT22;12242;50.952;4.678;2022-12-29T11:58:33;12.60;99.90
24035;DHT22;12242;50.952;4.678;2022-12-29T12:03:52;11.80;99.90
24035;DHT22;12242;50.952;4.678;2022-12-29T12:06:23;11.80;99.90
24035;DHT22;12242;50.952;4.678;2022-12-29T12:08:57;11.70;99.90
24035;DHT22;12242;50.952;4.678;2022-12-29T12:11:31;11.50;99.90
24035;DHT22;12242;50.952;4.678;2022-12-29T12:17:11;11.50;99.90
24035;DHT22;12242;50.952;4.678;2022-12-29T12:20:02;11.50;99.90
24035;DHT22;12242;50.952;4.678;2022-12-29T12:22:38;11.50;99.90
24035;DHT22;12242;50.952;4.678;2022-12-29T12:25:23;11.50;99.90
24035;DHT22;12242;50.952;4.678;2022-12-29T12:27:53;11.50;99.90
24035;DHT22;12242;50.952;4.678;2022-12-29T12:30:24;11.50;99.90
24035;DHT22;12242;50.952;4.678;2022-12-29T12:33:04;11.50;99.90
24035;DHT22;12242;50.952;4.678;2022-12-29T12:35:47;11.50;99.90
24035;DHT22;12242;50.952;4.678;2022-12-29T12:44:18;11.60;99.90
24035;DHT22;12242;50.952;4.678;2022-12-29T12:47:09;11.50;99.90
24035;DHT22;12242;50.952;4.678;2022-12-29T12:53:28;11.30;99.90
24035;DHT22;12242;50.952;4.678;2022-12-29T12:59:30;11.50;99.90
24035;DHT22;12242;50.952;4.678;2022-12-29T13:02:25;11.70;99.90
24035;DHT22;12242;50.952;4.678;2022-12-29T13:08:33;11.80;99.90
24035;DHT22;12242;50.952;4.678;2022-12-29T13:22:19;11.50;99.90
24035;DHT22;12242;50.952;4.678;2022-12-29T13:27:54;11.50;99.90
24035;DHT22;12242;50.952;4.678;2022-12-29T13:30:28;11.50;99.90
24035;DHT22;12242;50.952;4.678;2022-12-29T13:33:12;11.40;99.90
24035;DHT22;12242;50.952;4.678;2022-12-29T13:36:04;11.40;99.90
24035;DHT22;12242;50.952;4.678;2022-12-29T13:38:42;11.30;99.90
24035;DHT22;12242;50.952;4.678;2022-12-29T13:41:16;11.30;99.90
24035;DHT22;12242;50.952;4.678;2022-12-29T13:43:46;11.40;99.90
24035;DHT22;12242;50.952;4.678;2022-12-29T13:46:29;11.60;99.90
24035;DHT22;12242;50.952;4.678;2022-12-29T13:49:26;11.80;99.90
24035;DHT22;12242;50.952;4.678;2022-12-29T13:52:04;11.90;99.90
24035;DHT22;12242;50.952;4.678;2022-12-29T14:01:07;12.80;99.90
24035;DHT22;12242;50.952;4.678;2022-12-29T14:08:48;13.20;99.90
24035;DHT22;12242;50.952;4.678;2022-12-29T14:11:22;13.30;99.90
24035;DHT22;12242;50.952;4.678;2022-12-29T14:13:56;13.20;99.90
24035;DHT22;12242;50.952;4.678;2022-12-29T14:16:33;13.10;99.90
24035;DHT22;12242;50.952;4.678;2022-12-29T14:19:21;12.70;99.90
24035;DHT22;12242;50.952;4.678;2022-12-29T14:22:02;12.40;99.90
24035;DHT22;12242;50.952;4.678;2022-12-29T14:35:31;11.90;99.90
24035;DHT22;12242;50.952;4.678;2022-12-29T14:38:06;11.80;99.90
24035;DHT22;12242;50.952;4.678;2022-12-29T14:40:36;11.70;99.90
24035;DHT22;12242;50.952;4.678;2022-12-29T14:43:16;11.70;99.90
24035;DHT22;12242;50.952;4.678;2022-12-29T14:45:53;11.60;99.90
24035;DHT22;12242;50.952;4.678;2022-12-29T14:48:32;11.60;99.90
24035;DHT22;12242;50.952;4.678;2022-12-29T14:51:00;11.60;99.90
24035;DHT22;12242;50.952;4.678;2022-12-29T14:53:48;11.80;99.90
24035;DHT22;12242;50.952;4.678;2022-12-29T14:56:19;11.40;99.90
24035;DHT22;12242;50.952;4.678;2022-12-29T14:58:53;10.70;99.90
24035;DHT22;12242;50.952;4.678;2022-12-29T15:04:19;9.70;99.90
24035;DHT22;12242;50.952;4.678;2022-12-29T15:06:49;9.50;99.90
24035;DHT22;12242;50.952;4.678;2022-12-29T15:09:39;9.30;99.90
24035;DHT22;12242;50.952;4.678;2022-12-29T15:14:57;9.20;99.90
24035;DHT22;12242;50.952;4.678;2022-12-29T15:17:32;9.20;99.90
24035;DHT22;12242;50.952;4.678;2022-12-29T15:20:17;9.10;99.90
24035;DHT22;12242;50.952;4.678;2022-12-29T15:22:54;9.10;99.90
24035;DHT22;12242;50.952;4.678;2022-12-29T15:25:24;9.10;99.90
24035;DHT22;12242;50.952;4.678;2022-12-29T15:27:57;9.10;99.90
24035;DHT22;12242;50.952;4.678;2022-12-29T15:30:29;9.00;99.90
24035;DHT22;12242;50.952;4.678;2022-12-29T15:32:59;9.00;99.90
24035;DHT22;12242;50.952;4.678;2022-12-29T15:35:35;8.90;99.90
24035;DHT22;12242;50.952;4.678;2022-12-29T15:38:20;8.80;99.90
24035;DHT22;12242;50.952;4.678;2022-12-29T15:41:03;8.80;99.90
24035;DHT22;12242;50.952;4.678;2022-12-29T15:46:31;8.70;99.90
24035;DHT22;12242;50.952;4.678;2022-12-29T15:48:59;8.60;99.90
24035;DHT22;12242;50.952;4.678;2022-12-29T15:51:28;8.60;99.90
24035;DHT22;12242;50.952;4.678;2022-12-29T15:53:59;8.60;99.90
24035;DHT22;12242;50.952;4.678;2022-12-29T15:56:31;8.50;99.90
24035;DHT22;12242;50.952;4.678;2022-12-29T15:59:00;8.50;99.90
24035;DHT22;12242;50.952;4.678;2022-12-29T16:01:34;8.60;99.90
24035;DHT22;12242;50.952;4.678;2022-12-29T16:04:09;8.50;99.90
24035;DHT22;12242;50.952;4.678;2022-12-29T16:06:43;8.70;99.90
24035;DHT22;12242;50.952;4.678;2022-12-29T16:09:17;8.80;99.90
24035;DHT22;12242;50.952;4.678;2022-12-29T16:11:53;8.90;99.90
24035;DHT22;12242;50.952;4.678;2022-12-29T16:14:30;8.90;99.90
24035;DHT22;12242;50.952;4.678;2022-12-29T16:17:01;8.80;99.90
24035;DHT22;12242;50.952;4.678;2022-12-29T16:19:37;8.80;99.90
24035;DHT22;12242;50.952;4.678;2022-12-29T16:22:33;8.70;99.90
24035;DHT22;12242;50.952;4.678;2022-12-29T16:25:11;8.80;99.90
24035;DHT22;12242;50.952;4.678;2022-12-29T16:27:44;8.70;99.90
24035;DHT22;12242;50.952;4.678;2022-12-29T16:30:32;8.70;99.90
24035;DHT22;12242;50.952;4.678;2022-12-29T16:33:05;8.60;99.90
24035;DHT22;12242;50.952;4.678;2022-12-29T16:35:45;8.60;99.90
24035;DHT22;12242;50.952;4.678;2022-12-29T16:40:53;8.50;99.90
24035;DHT22;12242;50.952;4.678;2022-12-29T16:43:28;8.50;99.90
24035;DHT22;12242;50.952;4.678;2022-12-29T16:46:11;8.50;99.90
24035;DHT22;12242;50.952;4.678;2022-12-29T16:48:54;8.50;99.90
24035;DHT22;12242;50.952;4.678;2022-12-29T16:53:59;8.50;99.90
24035;DHT22;12242;50.952;4.678;2022-12-29T16:56:29;8.40;99.90
24035;DHT22;12242;50.952;4.678;2022-12-29T16:59:07;8.40;99.90
24035;DHT22;12242;50.952;4.678;2022-12-29T17:01:37;8.40;99.90
24035;DHT22;12242;50.952;4.678;2022-12-29T17:04:09;8.40;99.90
24035;DHT22;12242;50.952;4.678;2022-12-29T17:06:38;8.40;99.90
24035;DHT22;12242;50.952;4.678;2022-12-29T17:09:27;8.40;99.90
24035;DHT22;12242;50.952;4.678;2022-12-29T17:11:58;8.40;99.90
24035;DHT22;12242;50.952;4.678;2022-12-29T17:15:11;8.40;99.90
24035;DHT22;12242;50.952;4.678;2022-12-29T17:17:41;8.30;99.90
24035;DHT22;12242;50.952;4.678;2022-12-29T17:22:44;8.30;99.90
24035;DHT22;12242;50.952;4.678;2022-12-29T17:25:16;8.30;99.90
24035;DHT22;12242;50.952;4.678;2022-12-29T17:27:50;8.20;99.90
24035;DHT22;12242;50.952;4.678;2022-12-29T17:30:22;8.20;99.90
24035;DHT22;12242;50.952;4.678;2022-12-29T17:33:03;8.20;99.90
24035;DHT22;12242;50.952;4.678;2022-12-29T17:35:31;8.30;99.90
24035;DHT22;12242;50.952;4.678;2022-12-29T17:38:01;8.30;99.90
24035;DHT22;12242;50.952;4.678;2022-12-29T17:40:31;8.40;99.90
24035;DHT22;12242;50.952;4.678;2022-12-29T17:42:59;8.40;99.90
24035;DHT22;12242;50.952;4.678;2022-12-29T17:45:31;8.40;99.90
24035;DHT22;12242;50.952;4.678;2022-12-29T17:47:59;8.40;99.90
24035;DHT22;12242;50.952;4.678;2022-12-29T17:50:31;8.40;99.90
24035;DHT22;12242;50.952;4.678;2022-12-29T17:53:18;8.40;99.90
24035;DHT22;12242;50.952;4.678;2022-12-29T17:55:46;8.40;99.90
24035;DHT22;12242;50.952;4.678;2022-12-29T18:00:48;8.40;99.90
24035;DHT22;12242;50.952;4.678;2022-12-29T18:03:47;8.40;99.90
24035;DHT22;12242;50.952;4.678;2022-12-29T18:06:15;8.40;99.90
24035;DHT22;12242;50.952;4.678;2022-12-29T18:08:42;8.40;99.90
24035;DHT22;12242;50.952;4.678;2022-12-29T18:11:23;8.50;99.90
24035;DHT22;12242;50.952;4.678;2022-12-29T18:13:53;8.50;99.90
24035;DHT22;12242;50.952;4.678;2022-12-29T18:16:21;8.50;99.90
24035;DHT22;12242;50.952;4.678;2022-12-29T18:18:51;8.40;99.90
24035;DHT22;12242;50.952;4.678;2022-12-29T18:21:24;8.50;99.90
24035;DHT22;12242;50.952;4.678;2022-12-29T18:23:54;8.50;99.90
24035;DHT22;12242;50.952;4.678;2022-12-29T18:26:25;8.50;99.90
24035;DHT22;12242;50.952;4.678;2022-12-29T18:28:58;8.50;99.90